createdAt,value
2022-09-30T00:01:42.073Z,17.70
2022-09-30T00:04:18.466Z,13.52
2022-09-30T00:06:46.605Z,17.00
2022-09-30T00:09:16.475Z,18.02
2022-09-30T00:11:44.117Z,13.52
2022-09-30T00:14:16.406Z,10.05
2022-09-30T00:16:45.295Z,8.55
2022-09-30T00:19:17.387Z,7.80
2022-09-30T00:21:45.059Z,8.02
2022-09-30T00:24:14.351Z,8.55
2022-09-30T00:26:46.322Z,10.85
2022-09-30T00:29:18.348Z,10.00
2022-09-30T00:31:48.928Z,10.45
2022-09-30T00:34:19.571Z,11.68
2022-09-30T00:36:50.975Z,12.65
2022-09-30T00:39:22.591Z,15.53
2022-09-30T00:44:38.184Z,16.35
2022-09-30T00:47:07.270Z,19.73
2022-09-30T00:49:34.932Z,18.70
2022-09-30T00:52:02.529Z,20.17
2022-09-30T00:54:32.167Z,20.67
2022-09-30T00:57:03.354Z,20.05
2022-09-30T00:59:44.667Z,20.15
2022-09-30T01:02:14.462Z,20.48
2022-09-30T01:04:44.565Z,22.10
2022-09-30T01:07:13.270Z,21.17
2022-09-30T01:09:43.010Z,20.00
2022-09-30T01:12:16.555Z,23.02
2022-09-30T01:14:47.387Z,22.65
2022-09-30T01:17:16.839Z,22.60
2022-09-30T01:20:11.453Z,21.65
2022-09-30T01:22:43.017Z,22.05
2022-09-30T01:25:26.281Z,22.02
2022-09-30T01:28:02.064Z,22.80
2022-09-30T01:30:39.917Z,21.70
2022-09-30T01:33:11.330Z,22.25
2022-09-30T01:35:57.724Z,20.77
2022-09-30T01:38:29.375Z,22.70
2022-09-30T01:41:07.017Z,23.80
2022-09-30T01:43:41.223Z,24.15
2022-09-30T01:46:32.356Z,26.45
2022-09-30T01:49:04.758Z,27.70
2022-09-30T01:51:40.487Z,28.38
2022-09-30T01:54:22.716Z,27.42
2022-09-30T01:59:25.953Z,28.83
2022-09-30T02:01:59.774Z,27.88
2022-09-30T02:04:31.952Z,27.48
2022-09-30T02:09:30.655Z,26.52
2022-09-30T02:12:00.690Z,28.30
2022-09-30T02:14:38.600Z,32.58
2022-09-30T02:17:50.086Z,29.17
2022-09-30T02:20:21.252Z,30.48
2022-09-30T02:22:51.564Z,32.92
2022-09-30T02:25:25.144Z,33.03
2022-09-30T02:27:56.583Z,29.50
2022-09-30T02:30:25.121Z,30.20
2022-09-30T02:32:57.166Z,28.90
2022-09-30T02:35:29.022Z,27.58
2022-09-30T02:38:11.625Z,29.83
2022-09-30T02:40:43.836Z,33.47
2022-09-30T02:45:59.232Z,27.33
2022-09-30T02:48:49.865Z,26.60
2022-09-30T02:51:28.230Z,27.15
2022-09-30T02:53:59.673Z,31.80
2022-09-30T02:56:42.143Z,31.45
2022-09-30T02:59:11.275Z,29.83
2022-09-30T03:01:42.054Z,32.95
2022-09-30T03:04:12.296Z,29.57
2022-09-30T03:06:41.137Z,30.20
2022-09-30T03:09:10.460Z,30.13
2022-09-30T03:11:39.021Z,30.55
2022-09-30T03:14:27.802Z,31.60
2022-09-30T03:17:02.655Z,35.55
2022-09-30T03:19:46.647Z,33.53
2022-09-30T03:22:33.571Z,30.88
2022-09-30T03:25:09.671Z,34.55
2022-09-30T03:27:53.215Z,33.67
2022-09-30T03:30:24.632Z,32.60
2022-09-30T03:33:12.245Z,34.42
2022-09-30T03:35:43.582Z,32.78
2022-09-30T03:38:16.823Z,31.23
2022-09-30T03:40:53.609Z,34.28
2022-09-30T03:43:30.724Z,29.48
2022-09-30T03:46:09.892Z,29.42
2022-09-30T03:48:38.761Z,33.22
2022-09-30T03:51:08.020Z,32.60
2022-09-30T03:53:42.384Z,35.17
2022-09-30T03:56:10.364Z,33.50
2022-09-30T03:58:41.638Z,31.95
2022-09-30T04:01:12.738Z,34.13
2022-09-30T04:03:40.573Z,31.45
2022-09-30T04:06:10.272Z,34.20
2022-09-30T04:08:37.850Z,31.02
2022-09-30T04:11:05.782Z,30.80
2022-09-30T04:13:33.360Z,27.60
2022-09-30T04:16:01.076Z,29.90
2022-09-30T04:18:32.311Z,31.58
2022-09-30T04:20:59.995Z,31.52
2022-09-30T04:23:27.603Z,32.50
2022-09-30T04:25:55.883Z,32.40
2022-09-30T04:28:23.831Z,29.52
2022-09-30T04:30:51.473Z,32.63
2022-09-30T04:33:19.255Z,31.48
2022-09-30T04:35:46.888Z,31.50
2022-09-30T04:38:14.393Z,29.13
2022-09-30T04:40:42.507Z,32.33
2022-09-30T04:43:10.068Z,31.40
2022-09-30T04:45:39.235Z,31.00
2022-09-30T04:48:07.162Z,31.20
2022-09-30T04:50:34.842Z,31.23
2022-09-30T04:53:03.823Z,29.33
2022-09-30T04:55:31.822Z,30.48
2022-09-30T04:57:59.471Z,27.63
2022-09-30T05:00:27.231Z,29.48
2022-09-30T05:02:55.106Z,29.52
2022-09-30T05:05:22.705Z,30.80
2022-09-30T05:07:50.299Z,27.63
2022-09-30T05:10:18.142Z,27.63
2022-09-30T05:12:45.953Z,27.55
2022-09-30T05:15:13.548Z,25.80
2022-09-30T05:17:41.395Z,27.27
2022-09-30T05:20:10.887Z,27.85
2022-09-30T05:22:38.809Z,28.17
2022-09-30T05:25:07.401Z,28.05
2022-09-30T05:27:35.173Z,29.92
2022-09-30T05:30:03.003Z,29.35
2022-09-30T05:32:31.165Z,29.70
2022-09-30T05:34:58.757Z,27.60
2022-09-30T05:37:26.342Z,29.58
2022-09-30T05:39:55.236Z,28.42
2022-09-30T05:42:22.837Z,28.58
2022-09-30T05:44:51.536Z,29.90
2022-09-30T05:47:19.439Z,29.17
2022-09-30T05:49:47.152Z,28.63
2022-09-30T05:52:15.496Z,27.27
2022-09-30T05:54:43.359Z,27.00
2022-09-30T05:57:11.205Z,28.95
2022-09-30T05:59:38.771Z,26.77
2022-09-30T06:02:07.264Z,27.17
2022-09-30T06:04:34.922Z,28.90
2022-09-30T06:07:07.048Z,27.42
2022-09-30T06:09:38.124Z,26.88
2022-09-30T06:12:06.751Z,28.52
2022-09-30T06:14:35.452Z,28.40
2022-09-30T06:17:05.173Z,26.67
2022-09-30T06:19:33.078Z,25.25
2022-09-30T06:22:01.919Z,26.38
2022-09-30T06:24:30.951Z,27.02
2022-09-30T06:26:58.655Z,24.60
2022-09-30T06:29:26.247Z,26.77
2022-09-30T06:31:54.044Z,27.80
2022-09-30T06:34:21.722Z,26.00
2022-09-30T06:36:49.344Z,23.73
2022-09-30T06:39:17.151Z,24.83
2022-09-30T06:41:45.565Z,25.65
2022-09-30T06:44:25.348Z,25.65
2022-09-30T06:46:54.369Z,27.92
2022-09-30T06:49:22.315Z,24.98
2022-09-30T06:51:51.390Z,24.63
2022-09-30T06:54:21.042Z,24.75
2022-09-30T06:56:49.301Z,24.60
2022-09-30T06:59:17.222Z,24.35
2022-09-30T07:01:45.260Z,21.20
2022-09-30T07:04:13.168Z,21.67
2022-09-30T07:06:41.833Z,21.73
2022-09-30T07:09:10.118Z,22.75
2022-09-30T07:11:38.277Z,26.25
2022-09-30T07:14:06.995Z,26.42
2022-09-30T07:16:35.187Z,24.50
2022-09-30T07:19:03.798Z,25.23
2022-09-30T07:21:32.242Z,24.55
2022-09-30T07:24:00.151Z,22.02
2022-09-30T07:26:28.819Z,21.20
2022-09-30T07:28:57.251Z,21.65
2022-09-30T07:31:35.020Z,21.20
2022-09-30T07:34:07.284Z,20.98
2022-09-30T07:36:37.154Z,19.90
2022-09-30T07:39:06.967Z,24.13
2022-09-30T07:41:36.523Z,23.95
2022-09-30T07:44:05.587Z,20.33
2022-09-30T07:46:34.356Z,21.35
2022-09-30T07:49:07.591Z,20.33
2022-09-30T07:51:37.118Z,20.50
2022-09-30T07:54:15.701Z,24.88
2022-09-30T07:57:10.191Z,23.02
2022-09-30T07:59:32.332Z,24.10
2022-09-30T08:02:00.683Z,23.13
2022-09-30T08:04:28.784Z,22.00
2022-09-30T08:06:57.742Z,22.05
2022-09-30T08:09:27.039Z,19.65
2022-09-30T08:11:54.976Z,21.67
2022-09-30T08:14:23.968Z,21.45
2022-09-30T08:16:52.465Z,22.30
2022-09-30T08:19:23.996Z,19.65
2022-09-30T08:21:54.088Z,21.17
2022-09-30T08:24:22.833Z,20.23
2022-09-30T08:26:50.722Z,19.33
2022-09-30T08:29:20.583Z,24.25
2022-09-30T08:31:53.525Z,25.02
2022-09-30T08:34:21.359Z,27.25
2022-09-30T08:36:49.221Z,21.58
2022-09-30T08:39:17.219Z,18.40
2022-09-30T08:42:13.714Z,22.20
2022-09-30T08:44:51.623Z,18.50
2022-09-30T08:47:34.240Z,16.92
2022-09-30T08:50:17.168Z,17.58
2022-09-30T08:52:49.370Z,16.67
2022-09-30T08:55:21.535Z,16.60
2022-09-30T09:00:18.267Z,15.98
2022-09-30T09:02:52.364Z,14.73
2022-09-30T09:05:30.606Z,15.82
2022-09-30T09:08:17.297Z,16.45
2022-09-30T09:10:54.590Z,15.75
2022-09-30T09:13:49.333Z,17.08
2022-09-30T09:16:52.709Z,14.55
2022-09-30T09:19:24.530Z,14.55
2022-09-30T09:22:01.886Z,15.00
2022-09-30T09:24:35.197Z,15.95
2022-09-30T09:27:13.779Z,14.07
2022-09-30T09:29:49.445Z,14.80
2022-09-30T09:32:18.816Z,14.52
2022-09-30T09:34:51.850Z,18.40
2022-09-30T09:37:43.698Z,24.52
2022-09-30T09:42:59.033Z,13.43
2022-09-30T09:45:29.734Z,15.57
2022-09-30T09:47:58.039Z,13.05
2022-09-30T09:50:36.039Z,16.48
2022-09-30T09:53:16.421Z,18.63
2022-09-30T09:55:45.075Z,15.38
2022-09-30T09:58:17.527Z,18.05
2022-09-30T10:00:48.079Z,15.35
2022-09-30T10:03:19.721Z,16.83
2022-09-30T10:06:07.721Z,14.93
2022-09-30T10:08:38.626Z,15.95
2022-09-30T10:11:21.752Z,14.45
2022-09-30T10:13:51.136Z,13.20
2022-09-30T10:16:38.042Z,14.40
2022-09-30T10:19:19.083Z,18.70
2022-09-30T10:21:46.700Z,15.68
2022-09-30T10:24:30.848Z,14.63
2022-09-30T10:26:58.549Z,12.43
2022-09-30T10:29:28.343Z,13.85
2022-09-30T10:31:59.754Z,16.60
2022-09-30T10:34:29.666Z,14.95
2022-09-30T10:36:59.959Z,13.80
2022-09-30T10:39:28.813Z,15.65
2022-09-30T10:42:26.210Z,16.33
2022-09-30T10:44:58.382Z,15.38
2022-09-30T10:47:26.908Z,17.15
2022-09-30T10:50:03.525Z,17.98
2022-09-30T10:52:40.308Z,17.65
2022-09-30T10:55:14.645Z,15.32
2022-09-30T10:57:43.615Z,14.85
2022-09-30T11:00:25.264Z,16.15
2022-09-30T11:05:22.458Z,17.50
2022-09-30T11:08:01.912Z,19.02
2022-09-30T11:10:29.789Z,15.43
2022-09-30T11:13:02.868Z,16.55
2022-09-30T11:15:33.214Z,15.23
2022-09-30T11:18:12.590Z,14.57
2022-09-30T11:20:45.995Z,15.23
2022-09-30T11:23:36.103Z,14.02
2022-09-30T11:26:10.078Z,16.52
2022-09-30T11:28:49.686Z,98.13
2022-09-30T11:31:27.824Z,29.30
2022-09-30T11:34:18.540Z,17.13
2022-09-30T11:36:52.413Z,89.20
2022-09-30T11:39:43.945Z,45.30
2022-09-30T11:42:17.655Z,47.53
2022-09-30T11:44:45.906Z,116.47
2022-09-30T11:47:32.559Z,173.45
2022-09-30T11:50:19.869Z,40.63
2022-09-30T11:53:04.399Z,25.65
2022-09-30T11:55:42.178Z,139.25
2022-09-30T11:58:39.373Z,221.15
2022-09-30T12:01:01.929Z,165.30
2022-09-30T12:03:57.327Z,67.80
2022-09-30T12:06:28.377Z,218.70
2022-09-30T12:08:59.967Z,86.00
2022-09-30T12:11:33.404Z,79.85
2022-09-30T12:14:04.741Z,13.70
2022-09-30T12:16:33.738Z,12.43
2022-09-30T12:19:25.438Z,11.50
2022-09-30T12:21:59.641Z,10.32
2022-09-30T12:24:33.187Z,10.23
2022-09-30T12:27:02.055Z,10.48
2022-09-30T12:29:51.733Z,12.07
2022-09-30T12:32:22.948Z,11.98
2022-09-30T12:35:02.005Z,11.93
2022-09-30T12:37:29.798Z,10.88
2022-09-30T12:40:19.883Z,11.50
2022-09-30T12:43:06.006Z,12.27
2022-09-30T12:45:46.204Z,11.63
2022-09-30T12:48:17.557Z,10.88
2022-09-30T12:53:31.996Z,10.82
2022-09-30T12:56:04.520Z,11.63
2022-09-30T12:58:37.772Z,10.75
2022-09-30T13:01:13.249Z,12.23
2022-09-30T13:03:49.731Z,11.27
2022-09-30T13:06:20.849Z,12.68
2022-09-30T13:08:58.327Z,11.52
2022-09-30T13:11:42.935Z,13.02
2022-09-30T13:14:25.049Z,13.18
2022-09-30T13:17:04.326Z,12.55
2022-09-30T13:19:36.592Z,11.40
2022-09-30T13:22:29.660Z,11.80
2022-09-30T13:27:53.890Z,16.95
2022-09-30T13:30:21.723Z,15.15
2022-09-30T13:32:57.626Z,26.80
2022-09-30T13:35:32.896Z,208.75
2022-09-30T13:38:13.082Z,32.03
2022-09-30T13:41:03.114Z,127.93
2022-09-30T13:43:53.540Z,18.38
2022-09-30T13:46:30.797Z,289.70
2022-09-30T13:49:06.030Z,369.98
2022-09-30T13:51:34.713Z,146.15
2022-09-30T13:54:23.300Z,122.13
2022-09-30T13:56:51.630Z,96.68
2022-09-30T13:59:19.569Z,73.38
2022-09-30T14:01:56.449Z,73.38
2022-09-30T14:04:43.175Z,53.22
2022-09-30T14:07:14.177Z,49.20
2022-09-30T14:10:03.355Z,52.20
2022-09-30T14:12:39.322Z,28.20
2022-09-30T14:15:18.322Z,41.70
2022-09-30T14:17:52.447Z,22.95
2022-09-30T14:20:35.651Z,37.17
2022-09-30T14:23:03.390Z,25.90
2022-09-30T14:25:38.624Z,33.10
2022-09-30T14:28:10.301Z,26.52
2022-09-30T14:30:42.020Z,20.83
2022-09-30T14:35:38.212Z,36.72
2022-09-30T14:38:15.376Z,21.95
2022-09-30T14:40:49.834Z,35.42
2022-09-30T14:43:24.121Z,31.55
2022-09-30T14:45:55.272Z,19.15
2022-09-30T14:48:25.723Z,19.67
2022-09-30T14:51:07.924Z,24.42
2022-09-30T14:53:37.267Z,22.98
2022-09-30T14:56:21.203Z,24.88
2022-09-30T14:58:55.728Z,21.23
2022-09-30T15:01:26.043Z,24.95
2022-09-30T15:03:58.548Z,110.85
2022-09-30T15:06:29.577Z,201.93
2022-09-30T15:09:03.476Z,249.05
2022-09-30T15:11:34.894Z,65.55
2022-09-30T15:14:14.107Z,26.60
2022-09-30T15:16:51.153Z,24.58
2022-09-30T15:19:21.635Z,33.35
2022-09-30T15:21:51.188Z,23.73
2022-09-30T15:24:20.039Z,22.90
2022-09-30T15:26:49.291Z,51.78
2022-09-30T15:29:18.121Z,27.40
2022-09-30T15:31:47.804Z,26.15
2022-09-30T15:34:23.923Z,29.20
2022-09-30T15:36:57.857Z,26.13
2022-09-30T15:39:50.625Z,31.13
2022-09-30T15:42:37.366Z,34.78
2022-09-30T15:45:13.078Z,34.75
2022-09-30T15:47:54.110Z,48.35
2022-09-30T15:50:40.461Z,56.33
2022-09-30T15:53:22.653Z,66.82
2022-09-30T15:55:55.924Z,50.45
2022-09-30T15:58:27.795Z,48.28
2022-09-30T16:01:14.301Z,40.63
2022-09-30T16:03:54.869Z,37.38
2022-09-30T16:06:28.070Z,32.90
2022-09-30T16:09:03.949Z,34.45
2022-09-30T16:11:35.042Z,36.10
2022-09-30T16:14:05.636Z,39.77
2022-09-30T16:16:35.630Z,36.27
2022-09-30T16:19:04.311Z,52.80
2022-09-30T16:21:45.562Z,56.15
2022-09-30T16:24:36.743Z,58.00
2022-09-30T16:27:35.447Z,59.92
2022-09-30T16:30:06.652Z,54.88
2022-09-30T16:32:38.088Z,47.65
2022-09-30T16:35:07.229Z,41.05
2022-09-30T16:37:36.175Z,48.20
2022-09-30T16:40:15.857Z,56.90
2022-09-30T16:42:45.276Z,38.33
2022-09-30T16:45:15.403Z,57.42
2022-09-30T16:47:44.153Z,38.38
2022-09-30T16:50:15.712Z,35.80
2022-09-30T16:52:43.836Z,39.25
2022-09-30T16:55:13.288Z,38.20
2022-09-30T16:57:44.511Z,41.47
2022-09-30T17:00:18.296Z,39.00
2022-09-30T17:02:47.394Z,38.22
2022-09-30T17:05:35.262Z,40.28
2022-09-30T17:08:03.444Z,45.30
2022-09-30T17:10:33.345Z,38.30
2022-09-30T17:13:02.299Z,37.33
2022-09-30T17:15:31.793Z,41.78
2022-09-30T17:18:01.462Z,53.47
2022-09-30T17:20:29.646Z,55.17
2022-09-30T17:22:57.918Z,48.42
2022-09-30T17:25:26.382Z,41.40
2022-09-30T17:27:59.194Z,37.00
2022-09-30T17:30:28.619Z,41.08
2022-09-30T17:32:59.281Z,36.97
2022-09-30T17:35:28.404Z,37.40
2022-09-30T17:37:56.864Z,37.58
2022-09-30T17:40:43.791Z,37.67
2022-09-30T17:43:12.851Z,42.38
2022-09-30T17:45:44.167Z,41.22
2022-09-30T17:48:12.608Z,43.55
2022-09-30T17:50:42.990Z,37.72
2022-09-30T17:53:13.432Z,40.13
2022-09-30T17:55:42.048Z,34.25
2022-09-30T17:58:11.634Z,33.17
2022-09-30T18:00:39.869Z,34.50
2022-09-30T18:03:10.000Z,35.10
2022-09-30T18:05:38.334Z,40.35
2022-09-30T18:08:06.314Z,77.25
2022-09-30T18:10:38.739Z,55.08
2022-09-30T18:15:35.279Z,32.22
2022-09-30T18:18:03.154Z,34.22
2022-09-30T18:20:32.235Z,38.13
2022-09-30T18:23:00.387Z,45.50
2022-09-30T18:25:28.717Z,52.35
2022-09-30T18:27:59.383Z,38.17
2022-09-30T18:30:28.120Z,42.47
2022-09-30T18:32:57.193Z,33.95
2022-09-30T18:35:25.399Z,38.78
2022-09-30T18:37:57.858Z,40.25
2022-09-30T18:40:27.416Z,40.08
2022-09-30T18:43:00.459Z,38.03
2022-09-30T18:45:32.816Z,38.38
2022-09-30T18:48:02.546Z,34.83
2022-09-30T18:50:31.781Z,37.75
2022-09-30T18:53:04.607Z,34.25
2022-09-30T18:55:38.114Z,36.95
2022-09-30T18:58:06.525Z,39.28
2022-09-30T19:00:36.813Z,43.03
2022-09-30T19:03:05.135Z,40.85
2022-09-30T19:05:33.122Z,40.38
2022-09-30T19:08:01.266Z,41.35
2022-09-30T19:10:29.861Z,42.50
2022-09-30T19:12:57.903Z,39.90
2022-09-30T19:15:26.196Z,42.03
2022-09-30T19:17:57.611Z,43.00
2022-09-30T19:20:26.147Z,40.85
2022-09-30T19:22:56.732Z,44.03
2022-09-30T19:25:26.167Z,39.78
2022-09-30T19:27:56.561Z,41.63
2022-09-30T19:30:26.643Z,41.08
2022-09-30T19:32:59.247Z,42.75
2022-09-30T19:35:37.927Z,40.38
2022-09-30T19:38:10.555Z,43.25
2022-09-30T19:40:38.528Z,40.50
2022-09-30T19:43:08.288Z,39.90
2022-09-30T19:45:37.412Z,43.60
2022-09-30T19:48:05.379Z,41.53
2022-09-30T19:50:34.857Z,43.58
2022-09-30T19:53:03.503Z,43.88
2022-09-30T19:55:43.295Z,44.33
2022-09-30T19:58:14.411Z,45.08
2022-09-30T20:00:42.760Z,42.67
2022-09-30T20:03:11.592Z,46.17
2022-09-30T20:05:40.093Z,43.60
2022-09-30T20:08:08.187Z,42.10
2022-09-30T20:10:36.300Z,43.78
2022-09-30T20:13:04.428Z,40.88
2022-09-30T20:15:50.802Z,38.63
2022-09-30T20:18:22.928Z,35.88
2022-09-30T20:20:50.840Z,37.97
2022-09-30T20:23:20.726Z,38.22
2022-09-30T20:25:51.661Z,40.67
2022-09-30T20:28:20.540Z,41.45
2022-09-30T20:30:49.491Z,39.40
2022-09-30T20:33:26.535Z,40.95
2022-09-30T20:35:54.758Z,38.78
2022-09-30T20:38:25.062Z,39.75
2022-09-30T20:40:59.474Z,43.53
2022-09-30T20:43:31.255Z,44.97
2022-09-30T20:46:03.396Z,40.95
2022-09-30T20:48:33.773Z,38.38
2022-09-30T20:51:12.851Z,39.40
2022-09-30T20:53:43.488Z,122.57
2022-09-30T20:56:15.272Z,64.72
2022-09-30T20:58:43.453Z,39.97
2022-09-30T21:01:14.079Z,34.47
2022-09-30T21:03:42.179Z,32.83
2022-09-30T21:06:13.455Z,32.47
2022-09-30T21:08:43.103Z,33.20
2022-09-30T21:11:11.778Z,36.22
2022-09-30T21:13:58.143Z,37.92
2022-09-30T21:16:26.681Z,35.03
2022-09-30T21:18:54.380Z,34.58
2022-09-30T21:21:24.688Z,36.13
2022-09-30T21:23:55.681Z,38.00
2022-09-30T21:26:24.319Z,37.92
2022-09-30T21:28:52.080Z,31.95
2022-09-30T21:31:24.956Z,34.50
2022-09-30T21:33:56.702Z,35.00
2022-09-30T21:36:25.413Z,33.17
2022-09-30T21:38:53.454Z,34.88
2022-09-30T21:41:21.258Z,34.90
2022-09-30T21:43:49.551Z,35.75
2022-09-30T21:46:18.723Z,34.08
2022-09-30T21:48:46.659Z,35.03
2022-09-30T21:51:14.687Z,34.20
2022-09-30T21:53:43.379Z,37.15
2022-09-30T21:56:12.237Z,41.42
2022-09-30T21:58:40.205Z,36.50
2022-09-30T22:01:08.021Z,32.45
2022-09-30T22:03:39.588Z,33.47
2022-09-30T22:06:08.436Z,32.95
2022-09-30T22:08:40.361Z,36.53
2022-09-30T22:11:11.140Z,35.92
2022-09-30T22:13:42.742Z,37.20
2022-09-30T22:16:11.182Z,47.60
2022-09-30T22:18:38.856Z,43.28
2022-09-30T22:21:08.565Z,40.28
2022-09-30T22:23:36.520Z,39.70
2022-09-30T22:26:11.426Z,39.75
2022-09-30T22:28:39.692Z,41.63
2022-09-30T22:31:11.464Z,38.88
2022-09-30T22:36:44.589Z,35.30
2022-09-30T22:39:12.234Z,34.75
2022-09-30T22:41:40.249Z,36.33
2022-09-30T22:44:08.244Z,37.33
2022-09-30T22:46:36.395Z,35.20
2022-09-30T22:49:04.521Z,36.63
2022-09-30T22:51:32.959Z,37.30
2022-09-30T22:54:01.434Z,36.17
2022-09-30T22:56:29.285Z,35.22
2022-09-30T22:58:57.014Z,36.17
2022-09-30T23:01:24.606Z,30.55
2022-09-30T23:03:54.112Z,31.02
2022-09-30T23:06:22.885Z,29.05
2022-09-30T23:08:50.841Z,28.85
2022-09-30T23:11:19.095Z,29.17
2022-09-30T23:13:47.144Z,28.15
2022-09-30T23:16:15.754Z,28.88
2022-09-30T23:18:47.128Z,26.52
2022-09-30T23:21:16.933Z,29.15
2022-09-30T23:23:45.312Z,29.98
2022-09-30T23:26:14.726Z,26.65
2022-09-30T23:28:42.714Z,34.08
2022-09-30T23:31:11.693Z,34.58
2022-09-30T23:33:40.416Z,35.70
2022-09-30T23:36:08.257Z,35.30
2022-09-30T23:38:36.562Z,32.03
2022-09-30T23:41:05.219Z,30.33
2022-09-30T23:43:34.198Z,31.00
2022-09-30T23:46:02.559Z,34.28
2022-09-30T23:48:31.194Z,32.22
2022-09-30T23:50:58.865Z,33.45
2022-09-30T23:53:26.699Z,35.58
2022-09-30T23:55:55.656Z,38.08
2022-09-30T23:58:24.770Z,43.67
